createdAt,value
2023-08-15T00:01:12.214Z,101243.66
2023-08-15T00:03:39.836Z,101237.78
2023-08-15T00:06:13.140Z,101235.00
2023-08-15T00:08:39.673Z,101233.56
2023-08-15T00:11:06.214Z,101233.56
2023-08-15T00:13:33.145Z,101231.34
2023-08-15T00:15:59.709Z,101223.78
2023-08-15T00:18:26.565Z,101232.59
2023-08-15T00:20:55.924Z,101235.56
2023-08-15T00:23:37.694Z,101232.59
2023-08-15T00:26:04.224Z,101233.91
2023-08-15T00:28:31.179Z,101240.78
2023-08-15T00:30:57.782Z,101245.19
2023-08-15T00:33:25.930Z,101247.38
2023-08-15T00:35:55.764Z,101246.56
2023-08-15T00:38:25.303Z,101248.69
2023-08-15T00:40:52.289Z,101254.75
2023-08-15T00:43:21.887Z,101251.66
2023-08-15T00:45:51.573Z,101264.34
2023-08-15T00:48:18.372Z,101254.16
2023-08-15T00:50:49.070Z,101261.34
2023-08-15T00:53:29.848Z,101249.47
2023-08-15T00:56:06.219Z,101261.00
2023-08-15T00:58:35.637Z,101265.09
2023-08-15T01:01:03.694Z,101252.91
2023-08-15T01:03:31.796Z,101272.94
2023-08-15T01:05:59.458Z,101280.66
2023-08-15T01:08:28.765Z,101284.72
2023-08-15T01:10:58.205Z,101280.28
2023-08-15T01:13:50.311Z,101279.72
2023-08-15T01:16:29.642Z,101273.00
2023-08-15T01:19:06.495Z,101279.88
2023-08-15T01:24:23.553Z,101268.97
2023-08-15T01:26:50.078Z,101265.31
2023-08-15T01:29:25.547Z,101264.47
2023-08-15T01:32:05.973Z,101270.97
2023-08-15T01:34:43.495Z,101266.75
2023-08-15T01:37:18.160Z,101263.19
2023-08-15T01:39:48.464Z,101266.53
2023-08-15T01:42:25.603Z,101263.78
2023-08-15T01:45:04.470Z,101265.94
2023-08-15T01:47:33.432Z,101260.41
2023-08-15T01:50:00.045Z,101254.06
2023-08-15T01:52:26.676Z,101254.91
2023-08-15T01:54:53.235Z,101255.75
2023-08-15T01:57:19.891Z,101255.75
2023-08-15T01:59:46.980Z,101259.25
2023-08-15T02:02:13.560Z,101252.53
2023-08-15T02:04:40.292Z,101262.97
2023-08-15T02:07:06.833Z,101257.97
2023-08-15T02:09:33.342Z,101261.22
2023-08-15T02:11:59.856Z,101265.06
2023-08-15T02:14:26.373Z,101256.16
2023-08-15T02:16:52.894Z,101274.88
2023-08-15T02:19:19.412Z,101280.84
2023-08-15T02:21:45.946Z,101279.44
2023-08-15T02:24:12.459Z,101281.63
2023-08-15T02:26:39.090Z,101281.00
2023-08-15T02:29:06.877Z,101278.50
2023-08-15T02:31:34.620Z,101280.66
2023-08-15T02:34:01.209Z,101284.97
2023-08-15T02:36:27.769Z,101297.06
2023-08-15T02:38:54.250Z,101293.16
2023-08-15T02:41:22.773Z,101298.66
2023-08-15T02:43:49.311Z,101302.00
2023-08-15T02:46:15.935Z,101307.00
2023-08-15T02:48:42.876Z,101310.38
2023-08-15T02:51:09.599Z,101310.97
2023-08-15T02:53:37.169Z,101317.06
2023-08-15T02:56:03.953Z,101320.41
2023-08-15T02:58:30.555Z,101320.41
2023-08-15T03:00:59.732Z,101318.75
2023-08-15T03:03:31.480Z,101323.66
2023-08-15T03:06:01.980Z,101330.75
2023-08-15T03:08:28.454Z,101328.47
2023-08-15T03:10:59.970Z,101320.09
2023-08-15T03:13:26.902Z,101316.16
2023-08-15T03:15:58.452Z,101328.50
2023-08-15T03:18:24.971Z,101322.88
2023-08-15T03:20:58.760Z,101317.47
2023-08-15T03:23:25.888Z,101315.22
2023-08-15T03:25:59.914Z,101315.69
2023-08-15T03:28:26.734Z,101314.25
2023-08-15T03:31:09.717Z,101316.66
2023-08-15T03:33:36.885Z,101318.47
2023-08-15T03:36:03.824Z,101319.41
2023-08-15T03:38:30.426Z,101308.28
2023-08-15T03:41:07.223Z,101312.84
2023-08-15T03:43:35.725Z,101319.88
2023-08-15T03:46:04.701Z,101323.97
2023-08-15T03:48:31.466Z,101326.34
2023-08-15T03:51:22.820Z,101328.97
2023-08-15T03:53:54.306Z,101323.34
2023-08-15T03:56:20.924Z,101328.00
2023-08-15T03:58:47.505Z,101327.13
2023-08-15T04:01:14.023Z,101327.13
2023-08-15T04:03:40.716Z,101337.31
2023-08-15T04:06:07.392Z,101344.13
2023-08-15T04:08:34.245Z,101348.78
2023-08-15T04:11:01.818Z,101343.50
2023-08-15T04:13:28.295Z,101329.16
2023-08-15T04:15:54.839Z,101336.56
2023-08-15T04:21:02.081Z,101331.56
2023-08-15T04:23:28.674Z,101340.03
2023-08-15T04:25:55.309Z,101341.34
2023-08-15T04:28:22.313Z,101354.50
2023-08-15T04:30:49.100Z,101343.75
2023-08-15T04:33:17.202Z,101337.63
2023-08-15T04:35:43.698Z,101338.09
2023-08-15T04:38:14.042Z,101344.69
2023-08-15T04:40:41.900Z,101348.94
2023-08-15T04:43:09.170Z,101357.22
2023-08-15T04:45:42.260Z,101356.00
2023-08-15T04:48:09.681Z,101363.19
2023-08-15T04:50:36.660Z,101353.25
2023-08-15T04:53:03.463Z,101359.00
2023-08-15T04:55:30.044Z,101359.00
2023-08-15T04:57:56.525Z,101365.34
2023-08-15T05:00:23.470Z,101370.84
2023-08-15T05:02:50.290Z,101372.97
2023-08-15T05:05:19.797Z,101377.38
2023-08-15T05:07:46.355Z,101372.97
2023-08-15T05:13:02.114Z,101387.34
2023-08-15T05:15:29.191Z,101385.66
2023-08-15T05:17:56.065Z,101394.53
2023-08-15T05:20:22.726Z,101401.69
2023-08-15T05:22:49.499Z,101413.06
2023-08-15T05:25:16.008Z,101407.34
2023-08-15T05:27:42.616Z,101404.38
2023-08-15T05:30:09.832Z,101412.97
2023-08-15T05:32:36.385Z,101415.03
2023-08-15T05:35:03.087Z,101420.91
2023-08-15T05:37:29.623Z,101416.63
2023-08-15T05:39:56.190Z,101413.38
2023-08-15T05:42:23.033Z,101423.47
2023-08-15T05:44:49.658Z,101429.16
2023-08-15T05:47:16.328Z,101442.78
2023-08-15T05:49:43.920Z,101444.59
2023-08-15T05:52:10.550Z,101447.50
2023-08-15T05:54:37.141Z,101448.22
2023-08-15T05:57:03.914Z,101451.94
2023-08-15T05:59:30.554Z,101452.66
2023-08-15T06:01:57.078Z,101450.88
2023-08-15T06:04:23.695Z,101448.88
2023-08-15T06:06:50.374Z,101437.97
2023-08-15T06:09:18.655Z,101441.69
2023-08-15T06:11:45.566Z,101449.00
2023-08-15T06:14:12.113Z,101462.41
2023-08-15T06:16:38.759Z,101464.81
2023-08-15T06:19:05.432Z,101466.63
2023-08-15T06:21:31.966Z,101459.69
2023-08-15T06:23:59.877Z,101463.75
2023-08-15T06:26:26.786Z,101464.09
2023-08-15T06:28:56.404Z,101467.78
2023-08-15T06:31:23.083Z,101484.75
2023-08-15T06:33:52.513Z,101481.59
2023-08-15T06:36:19.008Z,101488.28
2023-08-15T06:38:56.904Z,101489.28
2023-08-15T06:41:23.555Z,101492.50
2023-08-15T06:43:56.045Z,101484.88
2023-08-15T06:46:23.114Z,101495.06
2023-08-15T06:48:49.856Z,101492.72
2023-08-15T06:51:16.414Z,101491.72
2023-08-15T06:53:45.544Z,101492.38
2023-08-15T06:56:12.439Z,101495.75
2023-08-15T06:58:39.021Z,101510.81
2023-08-15T07:01:07.228Z,101505.44
2023-08-15T07:03:34.886Z,101511.69
2023-08-15T07:06:02.148Z,101515.03
2023-08-15T07:08:28.722Z,101522.88
2023-08-15T07:10:58.066Z,101514.38
2023-08-15T07:13:24.832Z,101520.47
2023-08-15T07:15:56.573Z,101518.53
2023-08-15T07:18:24.743Z,101515.59
2023-08-15T07:20:52.916Z,101522.91
2023-08-15T07:23:21.564Z,101523.47
2023-08-15T07:25:48.657Z,101520.88
2023-08-15T07:28:15.277Z,101531.63
2023-08-15T07:30:46.339Z,101526.53
2023-08-15T07:33:13.828Z,101529.28
2023-08-15T07:35:40.508Z,101536.69
2023-08-15T07:38:08.120Z,101540.81
2023-08-15T07:40:34.862Z,101543.41
2023-08-15T07:43:01.395Z,101534.44
2023-08-15T07:45:28.126Z,101530.69
2023-08-15T07:47:57.202Z,101542.34
2023-08-15T07:50:28.214Z,101546.28
2023-08-15T07:52:56.144Z,101545.09
2023-08-15T07:55:22.940Z,101548.13
2023-08-15T07:57:49.499Z,101547.69
2023-08-15T08:00:16.664Z,101554.19
2023-08-15T08:02:47.617Z,101543.56
2023-08-15T08:05:17.327Z,101550.84
2023-08-15T08:07:45.257Z,101550.78
2023-08-15T08:10:15.612Z,101553.56
2023-08-15T08:12:42.178Z,101544.44
2023-08-15T08:15:09.528Z,101553.13
2023-08-15T08:17:36.254Z,101551.50
2023-08-15T08:20:09.176Z,101550.31
2023-08-15T08:22:35.880Z,101546.38
2023-08-15T08:25:17.680Z,101550.09
2023-08-15T08:27:45.594Z,101552.50
2023-08-15T08:30:14.135Z,101550.97
2023-08-15T08:32:41.180Z,101560.66
2023-08-15T08:35:08.196Z,101564.22
2023-08-15T08:37:34.762Z,101569.94
2023-08-15T08:40:10.510Z,101573.00
2023-08-15T08:42:37.638Z,101579.47
2023-08-15T08:45:25.572Z,101581.34
2023-08-15T08:47:52.823Z,101572.03
2023-08-15T08:50:20.022Z,101578.75
2023-08-15T08:52:50.444Z,101573.47
2023-08-15T08:55:18.765Z,101571.47
2023-08-15T08:57:49.857Z,101580.34
2023-08-15T09:00:18.420Z,101567.91
2023-08-15T09:02:45.576Z,101566.63
2023-08-15T09:05:13.231Z,101567.84
2023-08-15T09:07:40.903Z,101575.16
2023-08-15T09:10:08.002Z,101583.41
2023-08-15T09:12:39.050Z,101585.28
2023-08-15T09:15:15.467Z,101572.00
2023-08-15T09:17:44.059Z,101580.97
2023-08-15T09:20:20.870Z,101578.25
2023-08-15T09:22:51.646Z,101580.25
2023-08-15T09:25:21.467Z,101572.88
2023-08-15T09:27:48.258Z,101580.09
2023-08-15T09:30:16.737Z,101588.97
2023-08-15T09:32:44.869Z,101589.88
2023-08-15T09:35:16.636Z,101582.13
2023-08-15T09:37:46.925Z,101594.19
2023-08-15T09:40:17.610Z,101589.00
2023-08-15T09:42:45.930Z,101597.19
2023-08-15T09:45:14.185Z,101590.06
2023-08-15T09:47:41.530Z,101600.94
2023-08-15T09:50:10.476Z,101604.94
2023-08-15T09:53:04.969Z,101608.50
2023-08-15T09:55:33.136Z,101615.22
2023-08-15T09:57:59.780Z,101617.53
2023-08-15T10:00:26.358Z,101616.47
2023-08-15T10:03:18.177Z,101635.03
2023-08-15T10:05:47.802Z,101636.22
2023-08-15T10:08:16.365Z,101633.19
2023-08-15T10:10:43.425Z,101637.06
2023-08-15T10:13:10.664Z,101646.44
2023-08-15T10:15:38.510Z,101646.09
2023-08-15T10:18:06.505Z,101646.53
2023-08-15T10:20:37.740Z,101652.50
2023-08-15T10:23:08.813Z,101648.28
2023-08-15T10:25:42.300Z,101650.72
2023-08-15T10:28:13.374Z,101652.47
2023-08-15T10:30:44.063Z,101663.63
2023-08-15T10:33:17.965Z,101665.72
2023-08-15T10:35:52.909Z,101663.22
2023-08-15T10:38:26.988Z,101662.19
2023-08-15T10:41:01.530Z,101669.50
2023-08-15T10:43:29.438Z,101666.06
2023-08-15T10:46:02.417Z,101667.50
2023-08-15T10:48:55.681Z,101664.28
2023-08-15T10:51:37.547Z,101666.13
2023-08-15T10:54:04.224Z,101666.06
2023-08-15T10:56:34.578Z,101674.81
2023-08-15T10:59:15.911Z,101664.94
2023-08-15T11:01:46.181Z,101674.44
2023-08-15T11:04:20.395Z,101683.50
2023-08-15T11:06:53.565Z,101683.72
2023-08-15T11:09:28.183Z,101681.31
2023-08-15T11:11:54.780Z,101685.63
2023-08-15T11:14:21.894Z,101689.13
2023-08-15T11:16:50.745Z,101689.97
2023-08-15T11:19:26.520Z,101696.72
2023-08-15T11:21:56.115Z,101686.38
2023-08-15T11:24:22.546Z,101689.25
2023-08-15T11:26:49.876Z,101684.97
2023-08-15T11:29:17.859Z,101687.41
2023-08-15T11:31:44.911Z,101684.25
2023-08-15T11:34:13.431Z,101684.94
2023-08-15T11:36:40.648Z,101688.56
2023-08-15T11:39:12.710Z,101689.81
2023-08-15T11:41:42.394Z,101695.13
2023-08-15T11:44:08.932Z,101705.41
2023-08-15T11:46:52.566Z,101702.22
2023-08-15T11:49:20.168Z,101701.25
2023-08-15T11:51:46.885Z,101709.00
2023-08-15T11:54:14.167Z,101700.41
2023-08-15T11:56:54.836Z,101713.56
2023-08-15T11:59:24.642Z,101711.97
2023-08-15T12:01:51.557Z,101712.19
2023-08-15T12:04:18.740Z,101714.06
2023-08-15T12:06:48.655Z,101721.38
2023-08-15T12:09:15.218Z,101719.94
2023-08-15T12:11:41.820Z,101722.56
2023-08-15T12:14:22.569Z,101718.59
2023-08-15T12:16:49.466Z,101716.72
2023-08-15T12:19:22.512Z,101721.25
2023-08-15T12:21:51.581Z,101727.69
2023-08-15T12:24:18.481Z,101725.41
2023-08-15T12:26:45.023Z,101719.38
2023-08-15T12:29:12.116Z,101713.50
2023-08-15T12:31:40.789Z,101712.66
2023-08-15T12:34:10.562Z,101718.41
2023-08-15T12:36:38.094Z,101719.38
2023-08-15T12:39:04.828Z,101719.91
2023-08-15T12:41:31.390Z,101715.66
2023-08-15T12:43:59.296Z,101716.75
2023-08-15T12:46:25.864Z,101714.75
2023-08-15T12:48:52.436Z,101717.47
2023-08-15T12:51:19.016Z,101716.22
2023-08-15T12:53:45.519Z,101720.97
2023-08-15T12:56:12.082Z,101729.25
2023-08-15T12:58:38.653Z,101725.41
2023-08-15T13:01:05.424Z,101722.19
2023-08-15T13:03:32.374Z,101722.56
2023-08-15T13:05:59.096Z,101726.16
2023-08-15T13:08:26.541Z,101727.06
2023-08-15T13:10:53.169Z,101728.97
2023-08-15T13:13:19.863Z,101725.22
2023-08-15T13:15:46.373Z,101726.75
2023-08-15T13:18:15.627Z,101737.69
2023-08-15T13:20:42.803Z,101724.25
2023-08-15T13:23:09.378Z,101729.25
2023-08-15T13:25:37.276Z,101736.19
2023-08-15T13:28:04.053Z,101729.25
2023-08-15T13:30:30.609Z,101733.19
2023-08-15T13:32:57.575Z,101731.50
2023-08-15T13:35:26.888Z,101733.13
2023-08-15T13:37:53.461Z,101724.22
2023-08-15T13:40:20.056Z,101723.28
2023-08-15T13:42:46.858Z,101725.00
2023-08-15T13:45:20.125Z,101719.53
2023-08-15T13:47:46.693Z,101724.03
2023-08-15T13:50:13.238Z,101729.88
2023-08-15T13:52:42.548Z,101724.56
2023-08-15T13:55:11.324Z,101726.50
2023-08-15T13:57:37.835Z,101728.00
2023-08-15T14:00:04.833Z,101730.59
2023-08-15T14:02:32.963Z,101732.81
2023-08-15T14:05:01.024Z,101735.38
2023-08-15T14:07:27.541Z,101737.19
2023-08-15T14:09:57.098Z,101730.84
2023-08-15T14:12:26.000Z,101726.78
2023-08-15T14:14:52.863Z,101719.69
2023-08-15T14:17:20.259Z,101714.69
2023-08-15T14:19:47.181Z,101714.91
2023-08-15T14:22:14.663Z,101720.78
2023-08-15T14:24:47.823Z,101729.94
2023-08-15T14:27:14.561Z,101734.38
2023-08-15T14:29:41.347Z,101733.03
2023-08-15T14:32:07.927Z,101736.06
2023-08-15T14:34:34.964Z,101736.47
2023-08-15T14:37:01.746Z,101740.88
2023-08-15T14:39:28.867Z,101742.25
2023-08-15T14:41:55.547Z,101734.34
2023-08-15T14:44:22.245Z,101732.41
2023-08-15T14:46:48.896Z,101729.50
2023-08-15T14:49:15.418Z,101737.16
2023-08-15T14:51:42.011Z,101734.97
2023-08-15T14:54:08.567Z,101737.16
2023-08-15T14:56:35.756Z,101728.53
2023-08-15T14:59:02.283Z,101741.16
2023-08-15T15:01:28.841Z,101740.56
2023-08-15T15:03:57.705Z,101736.16
2023-08-15T15:06:24.349Z,101738.56
2023-08-15T15:08:50.870Z,101741.50
2023-08-15T15:11:17.445Z,101741.28
2023-08-15T15:13:46.744Z,101742.34
2023-08-15T15:16:13.868Z,101739.84
2023-08-15T15:18:42.024Z,101734.97
2023-08-15T15:21:08.579Z,101741.34
2023-08-15T15:23:35.169Z,101743.69
2023-08-15T15:26:01.895Z,101751.25
2023-08-15T15:28:31.270Z,101745.06
2023-08-15T15:30:58.498Z,101745.28
2023-08-15T15:33:26.926Z,101754.63
2023-08-15T15:35:53.517Z,101749.09
2023-08-15T15:38:20.104Z,101746.38
2023-08-15T15:40:46.668Z,101746.91
2023-08-15T15:43:13.341Z,101747.22
2023-08-15T15:45:40.338Z,101744.78
2023-08-15T15:48:07.371Z,101749.22
2023-08-15T15:50:36.947Z,101757.22
2023-08-15T15:53:04.750Z,101763.97
2023-08-15T15:55:31.527Z,101766.75
2023-08-15T15:57:58.134Z,101759.66
2023-08-15T16:00:24.762Z,101766.22
2023-08-15T16:02:51.271Z,101765.78
2023-08-15T16:05:17.869Z,101770.16
2023-08-15T16:07:44.505Z,101776.28
2023-08-15T16:10:13.761Z,101785.34
2023-08-15T16:12:40.371Z,101779.47
2023-08-15T16:15:07.592Z,101780.25
2023-08-15T16:17:34.606Z,101783.63
2023-08-15T16:20:01.461Z,101788.75
2023-08-15T16:22:28.149Z,101782.84
2023-08-15T16:24:54.696Z,101788.59
2023-08-15T16:27:21.373Z,101791.66
2023-08-15T16:29:48.263Z,101793.13
2023-08-15T16:32:16.997Z,101790.00
2023-08-15T16:34:44.036Z,101803.63
2023-08-15T16:37:10.604Z,101796.66
2023-08-15T16:39:40.099Z,101792.88
2023-08-15T16:42:06.623Z,101803.88
2023-08-15T16:44:33.283Z,101807.63
2023-08-15T16:46:59.812Z,101800.25
2023-08-15T16:49:26.550Z,101802.13
2023-08-15T16:51:55.019Z,101802.41
2023-08-15T16:54:27.838Z,101816.41
2023-08-15T16:56:54.438Z,101811.34
2023-08-15T16:59:20.998Z,101810.56
2023-08-15T17:01:47.543Z,101816.03
2023-08-15T17:04:20.242Z,101809.16
2023-08-15T17:06:46.884Z,101815.28
2023-08-15T17:09:13.439Z,101807.94
2023-08-15T17:11:59.419Z,101819.47
2023-08-15T17:14:26.108Z,101817.63
2023-08-15T17:16:52.723Z,101820.06
2023-08-15T17:19:19.281Z,101821.56
2023-08-15T17:21:48.615Z,101827.47
2023-08-15T17:24:15.622Z,101821.72
2023-08-15T17:26:42.161Z,101826.66
2023-08-15T17:29:08.721Z,101832.34
2023-08-15T17:31:35.285Z,101828.81
2023-08-15T17:34:01.743Z,101830.50
2023-08-15T17:36:28.701Z,101833.59
2023-08-15T17:38:55.173Z,101839.00
2023-08-15T17:41:21.680Z,101843.16
2023-08-15T17:43:48.270Z,101843.91
2023-08-15T17:46:15.014Z,101857.47
2023-08-15T17:48:41.616Z,101855.41
2023-08-15T17:51:08.593Z,101850.63
2023-08-15T17:53:35.166Z,101857.22
2023-08-15T17:56:03.690Z,101860.22
2023-08-15T17:58:52.723Z,101852.72
2023-08-15T18:01:20.819Z,101860.56
2023-08-15T18:03:51.122Z,101861.81
2023-08-15T18:06:17.953Z,101866.91
2023-08-15T18:08:45.597Z,101873.75
2023-08-15T18:11:12.538Z,101873.28
2023-08-15T18:13:40.054Z,101874.59
2023-08-15T18:16:07.247Z,101879.88
2023-08-15T18:21:16.484Z,101887.69
2023-08-15T18:23:44.055Z,101885.13
2023-08-15T18:26:10.931Z,101892.09
2023-08-15T18:28:40.748Z,101897.88
2023-08-15T18:31:07.624Z,101897.63
2023-08-15T18:33:34.633Z,101897.41
2023-08-15T18:36:01.343Z,101902.63
2023-08-15T18:38:36.251Z,101894.47
2023-08-15T18:41:02.792Z,101893.81
2023-08-15T18:43:29.511Z,101899.50
2023-08-15T18:45:56.075Z,101891.22
2023-08-15T18:48:27.060Z,101897.41
2023-08-15T18:50:53.664Z,101901.56
2023-08-15T18:53:23.500Z,101914.31
2023-08-15T18:55:51.553Z,101906.31
2023-08-15T18:58:18.189Z,101909.34
2023-08-15T19:00:51.170Z,101914.91
2023-08-15T19:03:17.897Z,101916.09
2023-08-15T19:05:46.064Z,101915.72
2023-08-15T19:08:14.493Z,101918.25
2023-08-15T19:10:43.269Z,101914.66
2023-08-15T19:13:15.167Z,101920.63
2023-08-15T19:15:48.457Z,101917.13
2023-08-15T19:18:22.633Z,101916.75
2023-08-15T19:20:49.163Z,101915.41
2023-08-15T19:23:15.768Z,101921.00
2023-08-15T19:25:42.359Z,101924.25
2023-08-15T19:28:09.087Z,101932.63
2023-08-15T19:30:37.672Z,101934.47
2023-08-15T19:33:04.378Z,101936.56
2023-08-15T19:35:31.115Z,101945.03
2023-08-15T19:37:57.704Z,101943.22
2023-08-15T19:40:24.292Z,101946.72
2023-08-15T19:42:51.054Z,101950.25
2023-08-15T19:45:20.539Z,101954.16
2023-08-15T19:47:47.262Z,101955.91
2023-08-15T19:50:13.961Z,101958.66
2023-08-15T19:52:40.543Z,101959.19
2023-08-15T19:55:11.391Z,101959.63
2023-08-15T19:57:38.073Z,101960.31
2023-08-15T20:00:06.061Z,101961.84
2023-08-15T20:02:34.332Z,101970.38
2023-08-15T20:05:01.111Z,101968.56
2023-08-15T20:07:27.950Z,101967.72
2023-08-15T20:10:09.836Z,101969.91
2023-08-15T20:12:38.693Z,101969.13
2023-08-15T20:15:05.851Z,101972.78
2023-08-15T20:17:33.578Z,101969.66
2023-08-15T20:20:00.507Z,101973.47
2023-08-15T20:22:27.362Z,101979.44
2023-08-15T20:24:54.680Z,101972.53
2023-08-15T20:27:25.199Z,101980.84
2023-08-15T20:29:56.448Z,101973.22
2023-08-15T20:32:23.826Z,101974.13
2023-08-15T20:34:50.767Z,101978.38
2023-08-15T20:37:17.529Z,101985.16
2023-08-15T20:39:44.114Z,101992.38
2023-08-15T20:42:10.750Z,101993.25
2023-08-15T20:44:43.062Z,101992.44
2023-08-15T20:47:10.813Z,101993.94
2023-08-15T20:49:37.342Z,101993.75
2023-08-15T20:52:05.023Z,101999.06
2023-08-15T20:54:33.027Z,102004.16
2023-08-15T20:56:59.985Z,102006.06
2023-08-15T20:59:26.856Z,102002.06
2023-08-15T21:01:53.479Z,101998.91
2023-08-15T21:04:20.101Z,102009.94
2023-08-15T21:06:46.805Z,102005.72
2023-08-15T21:09:13.512Z,102002.38
2023-08-15T21:11:40.054Z,102000.03
2023-08-15T21:14:06.698Z,102005.75
2023-08-15T21:16:33.374Z,102018.03
2023-08-15T21:18:59.927Z,102019.31
2023-08-15T21:21:26.594Z,102012.56
2023-08-15T21:23:53.400Z,102021.03
2023-08-15T21:26:25.961Z,102020.41
2023-08-15T21:28:52.624Z,102031.81
2023-08-15T21:31:19.173Z,102032.88
2023-08-15T21:33:45.796Z,102032.69
2023-08-15T21:36:15.523Z,102035.41
2023-08-15T21:38:42.097Z,102040.91
2023-08-15T21:41:08.603Z,102033.72
2023-08-15T21:43:35.186Z,102040.28
2023-08-15T21:46:01.823Z,102034.56
2023-08-15T21:48:28.461Z,102042.56
2023-08-15T21:50:55.028Z,102036.69
2023-08-15T21:53:21.873Z,102042.16
2023-08-15T21:55:49.004Z,102041.94
2023-08-15T21:58:15.638Z,102041.31
2023-08-15T22:00:52.580Z,102041.31
2023-08-15T22:03:19.311Z,102037.28
2023-08-15T22:05:49.090Z,102043.84
2023-08-15T22:08:16.275Z,102046.16
2023-08-15T22:10:45.467Z,102045.09
2023-08-15T22:13:12.035Z,102050.16
2023-08-15T22:15:38.600Z,102044.44
2023-08-15T22:20:39.522Z,102054.56
2023-08-15T22:23:06.148Z,102046.75
2023-08-15T22:25:32.720Z,102050.56
2023-08-15T22:27:59.230Z,102055.00
2023-08-15T22:30:25.859Z,102053.72
2023-08-15T22:32:52.566Z,102047.34
2023-08-15T22:35:24.086Z,102057.06
2023-08-15T22:37:52.884Z,102056.84
2023-08-15T22:40:20.088Z,102054.94
2023-08-15T22:42:46.585Z,102047.53
2023-08-15T22:45:26.856Z,102048.34
2023-08-15T22:47:53.547Z,102044.13
2023-08-15T22:50:20.180Z,102046.47
2023-08-15T22:52:46.809Z,102043.06
2023-08-15T22:55:13.378Z,102035.66
2023-08-15T22:57:40.386Z,102035.25
2023-08-15T23:00:07.561Z,102040.50
2023-08-15T23:02:34.097Z,102036.50
2023-08-15T23:05:00.628Z,102037.94
2023-08-15T23:07:27.225Z,102036.84
2023-08-15T23:09:53.765Z,102052.44
2023-08-15T23:12:20.410Z,102043.53
2023-08-15T23:14:54.725Z,102043.09
2023-08-15T23:17:24.544Z,102043.53
2023-08-15T23:19:51.860Z,102046.44
2023-08-15T23:22:18.624Z,102040.97
2023-08-15T23:24:45.342Z,102044.53
2023-08-15T23:27:11.911Z,102038.03
2023-08-15T23:29:38.479Z,102038.03
2023-08-15T23:32:05.202Z,102031.69
2023-08-15T23:34:31.764Z,102042.22
2023-08-15T23:36:58.788Z,102059.47
2023-08-15T23:39:26.188Z,102063.69
2023-08-15T23:41:53.053Z,102059.91
2023-08-15T23:44:22.153Z,102051.25
2023-08-15T23:46:49.087Z,102052.75
2023-08-15T23:49:15.898Z,102055.03
2023-08-15T23:51:42.485Z,102052.72
2023-08-15T23:54:09.254Z,102051.41
2023-08-15T23:56:35.915Z,102054.38
2023-08-15T23:59:02.534Z,102054.31
